createdAt,value
2017-12-05T00:01:08.917Z,11.52
2017-12-05T00:03:37.741Z,13.95
2017-12-05T00:06:06.289Z,11.85
2017-12-05T00:08:35.144Z,8.32
2017-12-05T00:11:03.983Z,6.90
2017-12-05T00:13:32.818Z,8.18
2017-12-05T00:16:01.650Z,6.05
2017-12-05T00:18:30.214Z,5.03
2017-12-05T00:21:01.196Z,13.55
2017-12-05T00:23:30.025Z,8.73
2017-12-05T00:25:58.851Z,6.80
2017-12-05T00:28:27.711Z,10.45
2017-12-05T00:30:56.533Z,8.70
2017-12-05T00:33:25.362Z,11.57
2017-12-05T00:35:54.277Z,10.00
2017-12-05T00:38:23.116Z,10.23
2017-12-05T00:40:52.708Z,16.33
2017-12-05T00:43:21.534Z,7.25
2017-12-05T00:45:49.752Z,13.62
2017-12-05T00:48:18.785Z,17.12
2017-12-05T00:50:47.602Z,5.75
2017-12-05T00:53:16.437Z,14.48
2017-12-05T00:55:46.029Z,8.10
2017-12-05T00:58:14.849Z,7.07
2017-12-05T01:00:43.672Z,6.10
2017-12-05T01:03:12.490Z,7.60
2017-12-05T01:05:41.319Z,11.30
2017-12-05T01:08:10.145Z,12.90
2017-12-05T01:10:38.968Z,7.10
2017-12-05T01:13:07.811Z,13.68
2017-12-05T01:15:36.643Z,7.75
2017-12-05T01:18:05.467Z,9.82
2017-12-05T01:20:35.058Z,9.73
2017-12-05T01:23:04.653Z,10.80
2017-12-05T01:25:33.481Z,6.12
2017-12-05T01:28:02.311Z,8.13
2017-12-05T01:30:31.753Z,12.65
2017-12-05T01:33:01.339Z,8.07
2017-12-05T01:35:30.177Z,10.93
2017-12-05T01:37:59.039Z,13.13
2017-12-05T01:40:28.357Z,7.60
2017-12-05T01:42:57.202Z,18.37
2017-12-05T01:45:26.073Z,10.23
2017-12-05T01:47:54.904Z,14.15
2017-12-05T01:50:23.737Z,10.05
2017-12-05T01:52:52.573Z,14.43
2017-12-05T01:55:21.432Z,11.75
2017-12-05T01:57:50.320Z,9.32
2017-12-05T02:00:18.541Z,11.82
2017-12-05T02:02:47.106Z,13.68
2017-12-05T02:05:16.029Z,15.45
2017-12-05T02:07:45.344Z,11.77
2017-12-05T02:10:14.189Z,13.57
2017-12-05T02:12:42.754Z,12.60
2017-12-05T02:15:11.651Z,13.15
2017-12-05T02:17:40.609Z,10.38
2017-12-05T02:20:09.169Z,16.20
2017-12-05T02:22:38.162Z,13.43
2017-12-05T02:25:07.001Z,8.55
2017-12-05T02:27:36.100Z,10.95
2017-12-05T02:30:04.941Z,9.85
2017-12-05T02:32:33.780Z,10.07
2017-12-05T02:35:02.621Z,19.10
2017-12-05T02:37:32.215Z,9.90
2017-12-05T02:40:01.922Z,11.32
2017-12-05T02:42:30.762Z,16.02
2017-12-05T02:44:59.310Z,10.70
2017-12-05T02:47:28.318Z,14.75
2017-12-05T02:49:57.633Z,10.45
2017-12-05T02:52:25.847Z,12.48
2017-12-05T02:54:54.689Z,9.90
2017-12-05T02:57:24.319Z,8.02
2017-12-05T02:59:52.520Z,6.57
2017-12-05T03:02:21.350Z,6.90
2017-12-05T03:04:50.193Z,9.40
2017-12-05T03:07:19.073Z,6.97
2017-12-05T03:09:47.590Z,7.72
2017-12-05T03:12:16.446Z,8.07
2017-12-05T03:14:45.285Z,8.90
2017-12-05T03:17:14.158Z,9.13
2017-12-05T03:19:43.018Z,6.15
2017-12-05T03:22:11.880Z,8.57
2017-12-05T03:24:41.462Z,10.35
2017-12-05T03:27:10.306Z,7.40
2017-12-05T03:29:39.130Z,6.25
2017-12-05T03:32:07.953Z,6.47
2017-12-05T03:34:36.786Z,6.97
2017-12-05T03:37:05.612Z,6.78
2017-12-05T03:39:34.430Z,6.22
2017-12-05T03:42:04.008Z,6.60
2017-12-05T03:44:32.848Z,5.40
2017-12-05T03:47:01.662Z,6.37
2017-12-05T03:49:30.486Z,6.70
2017-12-05T03:51:59.419Z,5.30
2017-12-05T03:54:28.233Z,7.22
2017-12-05T03:56:57.061Z,7.18
2017-12-05T03:59:25.879Z,7.80
2017-12-05T04:01:55.487Z,6.72
2017-12-05T04:04:25.094Z,6.53
2017-12-05T04:06:54.733Z,7.45
2017-12-05T04:09:23.566Z,11.68
2017-12-05T04:11:52.405Z,4.80
2017-12-05T04:14:21.225Z,6.40
2017-12-05T04:16:50.625Z,4.60
2017-12-05T04:19:19.462Z,8.20
2017-12-05T04:21:49.061Z,4.12
2017-12-05T04:24:17.890Z,5.45
2017-12-05T04:26:46.724Z,4.35
2017-12-05T04:29:15.545Z,4.40
2017-12-05T04:31:45.136Z,4.65
2017-12-05T04:34:13.977Z,4.30
2017-12-05T04:36:42.816Z,5.22
2017-12-05T04:39:11.645Z,4.22
2017-12-05T04:41:39.845Z,4.18
2017-12-05T04:44:08.718Z,6.12
2017-12-05T04:46:37.643Z,3.12
2017-12-05T04:49:06.465Z,3.00
2017-12-05T04:51:36.075Z,3.90
2017-12-05T04:54:05.681Z,3.37
2017-12-05T04:56:34.974Z,3.15
2017-12-05T04:59:03.830Z,3.62
2017-12-05T05:01:32.194Z,4.68
2017-12-05T05:04:01.034Z,2.92
2017-12-05T05:06:30.629Z,3.22
2017-12-05T05:08:59.284Z,5.90
2017-12-05T05:11:27.941Z,5.43
2017-12-05T05:13:56.761Z,3.58
2017-12-05T05:16:25.426Z,4.10
2017-12-05T05:18:54.133Z,3.92
2017-12-05T05:21:22.795Z,3.83
2017-12-05T05:23:51.463Z,4.65
2017-12-05T05:26:20.119Z,9.73
2017-12-05T05:28:48.778Z,4.60
2017-12-05T05:31:18.054Z,5.90
2017-12-05T05:33:46.713Z,4.10
2017-12-05T05:36:15.539Z,5.60
2017-12-05T05:38:44.349Z,5.85
2017-12-05T05:41:13.041Z,4.30
2017-12-05T05:43:41.701Z,6.80
2017-12-05T05:46:10.417Z,4.37
2017-12-05T05:48:39.508Z,5.12
2017-12-05T05:51:08.333Z,6.60
2017-12-05T05:53:37.173Z,3.55
2017-12-05T05:56:07.197Z,6.82
2017-12-05T05:58:36.018Z,5.75
2017-12-05T06:01:04.842Z,4.53
2017-12-05T06:03:34.436Z,6.18
2017-12-05T06:06:03.261Z,5.50
2017-12-05T06:08:32.085Z,4.87
2017-12-05T06:11:00.914Z,4.75
2017-12-05T06:13:30.509Z,7.75
2017-12-05T06:15:59.363Z,4.80
2017-12-05T06:18:28.184Z,8.48
2017-12-05T06:20:57.014Z,7.35
2017-12-05T06:23:25.842Z,4.82
2017-12-05T06:26:00.963Z,6.62
2017-12-05T06:28:35.887Z,8.07
2017-12-05T06:31:11.087Z,7.57
2017-12-05T06:33:46.756Z,10.05
2017-12-05T06:36:23.412Z,5.12
2017-12-05T06:39:01.050Z,8.23
2017-12-05T06:41:36.862Z,5.80
2017-12-05T06:44:13.039Z,12.48
2017-12-05T06:46:48.769Z,6.68
2017-12-05T06:49:24.206Z,8.85
2017-12-05T06:51:59.898Z,9.65
2017-12-05T06:54:34.423Z,6.18
2017-12-05T06:57:09.667Z,11.27
2017-12-05T06:59:43.628Z,12.10
2017-12-05T07:02:19.556Z,7.82
2017-12-05T07:04:55.003Z,6.37
2017-12-05T07:07:28.821Z,7.75
2017-12-05T07:10:03.788Z,9.30
2017-12-05T07:12:41.706Z,7.55
2017-12-05T07:15:11.020Z,7.72
2017-12-05T07:17:40.321Z,9.77
2017-12-05T07:20:09.217Z,9.98
2017-12-05T07:22:38.043Z,9.27
2017-12-05T07:25:06.292Z,6.82
2017-12-05T07:27:35.452Z,10.30
2017-12-05T07:30:03.997Z,7.65
2017-12-05T07:32:32.210Z,13.68
2017-12-05T07:35:00.733Z,8.20
2017-12-05T07:37:29.269Z,10.68
2017-12-05T07:39:58.353Z,9.73
2017-12-05T07:42:26.566Z,8.00
2017-12-05T07:44:55.545Z,6.50
2017-12-05T07:47:24.157Z,11.30
2017-12-05T07:49:53.292Z,6.72
2017-12-05T07:52:21.518Z,9.90
2017-12-05T07:54:50.862Z,12.82
2017-12-05T07:57:19.585Z,10.32
2017-12-05T07:59:48.196Z,12.60
2017-12-05T08:02:17.834Z,21.77
2017-12-05T08:04:46.206Z,12.40
2017-12-05T08:07:16.373Z,13.65
2017-12-05T08:09:44.918Z,10.20
2017-12-05T08:12:13.297Z,13.50
2017-12-05T08:14:41.546Z,10.25
2017-12-05T08:17:10.685Z,10.43
2017-12-05T08:19:39.574Z,9.73
2017-12-05T08:22:08.130Z,11.63
2017-12-05T08:24:36.341Z,12.10
2017-12-05T08:27:13.972Z,19.52
2017-12-05T08:29:42.542Z,13.45
2017-12-05T08:32:12.822Z,14.25
2017-12-05T08:34:41.437Z,16.70
2017-12-05T08:37:10.259Z,9.75
2017-12-05T08:39:39.177Z,12.50
2017-12-05T08:42:07.732Z,16.12
2017-12-05T08:44:35.954Z,16.75
2017-12-05T08:47:04.498Z,15.15
2017-12-05T08:49:33.789Z,15.93
2017-12-05T08:52:03.154Z,10.98
2017-12-05T08:54:31.553Z,15.93
2017-12-05T08:57:00.118Z,14.73
2017-12-05T08:59:28.333Z,16.23
2017-12-05T09:02:09.653Z,10.00
2017-12-05T09:49:46.041Z,14.18
2017-12-05T09:52:14.716Z,17.00
2017-12-05T09:54:42.946Z,19.30
2017-12-05T09:57:11.200Z,16.12
2017-12-05T09:59:39.433Z,19.17
2017-12-05T10:02:09.094Z,15.38
2017-12-05T10:04:37.310Z,24.27
2017-12-05T10:07:07.008Z,17.92
2017-12-05T10:09:35.633Z,20.77
2017-12-05T10:12:04.183Z,16.87
2017-12-05T10:14:33.191Z,15.13
2017-12-05T10:17:02.847Z,14.20
2017-12-05T10:19:31.094Z,16.40
2017-12-05T10:21:59.649Z,18.90
2017-12-05T10:24:29.312Z,17.55
2017-12-05T10:26:57.529Z,18.55
2017-12-05T10:29:25.749Z,21.48
2017-12-05T10:31:53.974Z,14.30
2017-12-05T10:34:22.205Z,18.30
2017-12-05T10:36:50.485Z,17.02
2017-12-05T10:39:19.114Z,21.48
2017-12-05T10:41:47.374Z,18.12
2017-12-05T10:44:15.593Z,18.75
2017-12-05T10:46:43.825Z,19.55
2017-12-05T10:49:12.050Z,20.65
2017-12-05T10:51:40.273Z,19.70
2017-12-05T10:54:08.498Z,21.05
2017-12-05T10:56:36.722Z,22.30
2017-12-05T10:59:05.586Z,17.37
2017-12-05T11:01:34.460Z,17.87
2017-12-05T11:04:03.363Z,15.73
2017-12-05T11:06:32.265Z,16.40
2017-12-05T11:09:00.959Z,21.73
2017-12-05T11:11:29.684Z,25.27
2017-12-05T11:13:59.155Z,14.82
2017-12-05T11:16:27.881Z,17.83
2017-12-05T11:18:56.732Z,15.93
2017-12-05T11:21:25.454Z,15.10
2017-12-05T11:23:54.293Z,14.35
2017-12-05T11:26:22.969Z,14.95
2017-12-05T11:28:51.838Z,17.20
2017-12-05T11:31:21.453Z,19.77
2017-12-05T11:33:51.075Z,13.75
2017-12-05T11:36:20.678Z,17.87
2017-12-05T11:38:50.304Z,12.25
2017-12-05T11:41:19.157Z,12.32
2017-12-05T11:43:48.035Z,11.48
2017-12-05T11:46:16.925Z,13.50
2017-12-05T11:48:45.445Z,16.35
2017-12-05T11:51:14.753Z,16.92
2017-12-05T11:53:44.357Z,13.95
2017-12-05T11:56:13.969Z,14.75
2017-12-05T11:58:43.564Z,16.27
2017-12-05T12:01:12.890Z,13.98
2017-12-05T12:03:41.755Z,15.10
2017-12-05T12:06:11.062Z,13.00
2017-12-05T12:08:40.671Z,15.98
2017-12-05T12:11:10.302Z,16.25
2017-12-05T12:13:39.141Z,13.50
2017-12-05T12:16:07.975Z,19.85
2017-12-05T12:18:36.813Z,12.95
2017-12-05T12:21:05.646Z,13.57
2017-12-05T12:23:35.249Z,13.10
2017-12-05T12:26:04.873Z,14.90
2017-12-05T12:28:33.705Z,13.82
2017-12-05T12:31:02.554Z,13.48
2017-12-05T12:33:31.086Z,15.27
2017-12-05T12:36:00.039Z,18.70
2017-12-05T12:38:28.632Z,18.40
2017-12-05T12:40:57.163Z,14.13
2017-12-05T12:43:26.004Z,12.77
2017-12-05T12:45:54.839Z,14.15
2017-12-05T12:48:23.687Z,14.65
2017-12-05T12:50:52.540Z,14.50
2017-12-05T12:53:22.163Z,15.57
2017-12-05T12:55:51.018Z,14.27
2017-12-05T12:58:19.894Z,14.57
2017-12-05T13:00:48.570Z,14.25
2017-12-05T13:03:17.412Z,15.43
2017-12-05T13:05:47.022Z,17.77
2017-12-05T13:08:16.640Z,15.85
2017-12-05T13:10:45.492Z,17.48
2017-12-05T13:13:14.357Z,14.00
2017-12-05T13:15:43.212Z,14.75
2017-12-05T13:18:12.813Z,27.00
2017-12-05T13:20:41.656Z,18.30
2017-12-05T13:23:10.498Z,14.65
2017-12-05T13:25:40.918Z,19.35
2017-12-05T13:28:10.530Z,19.30
2017-12-05T13:30:40.140Z,16.00
2017-12-05T13:33:09.790Z,20.85
2017-12-05T13:35:38.643Z,17.17
2017-12-05T13:38:08.303Z,15.25
2017-12-05T13:40:37.161Z,18.65
2017-12-05T13:43:06.018Z,15.35
2017-12-05T13:45:36.313Z,18.98
2017-12-05T13:48:04.844Z,25.48
2017-12-05T13:50:33.750Z,21.67
2017-12-05T13:53:02.590Z,19.58
2017-12-05T13:55:31.465Z,25.67
2017-12-05T13:58:00.153Z,20.92
2017-12-05T14:00:28.866Z,20.02
2017-12-05T14:02:57.590Z,17.77
2017-12-05T14:05:26.442Z,22.60
2017-12-05T14:07:55.182Z,18.95
2017-12-05T14:10:24.475Z,17.67
2017-12-05T14:12:53.401Z,15.80
2017-12-05T14:15:22.569Z,15.95
2017-12-05T14:17:51.287Z,18.95
2017-12-05T14:20:20.137Z,16.65
2017-12-05T14:22:48.981Z,15.77
2017-12-05T14:25:17.830Z,16.85
2017-12-05T14:27:46.534Z,18.45
2017-12-05T14:30:15.223Z,22.30
2017-12-05T14:32:44.064Z,17.45
2017-12-05T14:35:13.686Z,19.02
2017-12-05T14:37:42.557Z,20.60
2017-12-05T14:40:12.187Z,16.75
2017-12-05T14:42:41.039Z,22.17
2017-12-05T14:45:09.946Z,17.67
2017-12-05T14:47:38.805Z,19.92
2017-12-05T14:50:07.689Z,16.80
2017-12-05T14:52:36.351Z,15.32
2017-12-05T14:55:04.585Z,17.60
2017-12-05T14:57:32.830Z,17.08
2017-12-05T15:00:01.063Z,16.73
2017-12-05T15:02:30.674Z,18.23
2017-12-05T15:04:59.541Z,16.58
2017-12-05T15:07:28.400Z,17.92
2017-12-05T15:09:57.258Z,13.80
2017-12-05T15:12:25.470Z,22.70
2017-12-05T15:14:54.312Z,14.55
2017-12-05T15:17:23.942Z,20.08
2017-12-05T15:19:52.784Z,17.65
2017-12-05T15:22:21.730Z,18.15
2017-12-05T15:24:50.611Z,20.00
2017-12-05T15:27:19.474Z,15.60
2017-12-05T15:29:49.078Z,16.80
2017-12-05T15:32:18.773Z,18.00
2017-12-05T15:34:47.321Z,16.90
2017-12-05T15:37:15.551Z,18.37
2017-12-05T15:39:45.170Z,17.52
2017-12-05T15:42:14.813Z,14.90
2017-12-05T15:44:43.688Z,14.73
2017-12-05T15:47:12.806Z,16.65
2017-12-05T15:49:41.656Z,17.95
2017-12-05T15:52:11.297Z,15.40
2017-12-05T15:54:40.157Z,19.15
2017-12-05T15:57:09.781Z,18.02
2017-12-05T15:59:38.638Z,20.60
2017-12-05T16:02:08.383Z,19.20
2017-12-05T16:04:37.292Z,16.27
2017-12-05T16:07:05.894Z,16.35
2017-12-05T16:09:34.744Z,17.37
2017-12-05T16:12:04.399Z,18.83
2017-12-05T16:14:33.287Z,17.98
2017-12-05T16:17:02.139Z,16.08
2017-12-05T16:19:31.003Z,18.40
2017-12-05T16:21:59.893Z,19.42
2017-12-05T16:24:28.755Z,19.73
2017-12-05T16:26:57.769Z,18.20
2017-12-05T16:29:26.612Z,18.40
2017-12-05T16:31:55.452Z,17.33
2017-12-05T16:34:24.391Z,16.33
2017-12-05T16:36:53.236Z,20.58
2017-12-05T16:39:22.091Z,25.52
2017-12-05T16:41:50.986Z,16.42
2017-12-05T16:47:19.272Z,14.10
2017-12-05T16:49:48.124Z,16.85
2017-12-05T16:52:17.436Z,15.82
2017-12-05T16:54:47.040Z,16.10
2017-12-05T16:57:16.646Z,17.62
2017-12-05T16:59:46.262Z,13.93
2017-12-05T17:02:16.026Z,16.58
2017-12-05T17:04:45.051Z,16.67
2017-12-05T17:07:13.958Z,17.40
2017-12-05T17:09:43.780Z,16.62
2017-12-05T17:12:12.014Z,17.25
2017-12-05T17:14:40.266Z,14.07
2017-12-05T17:17:09.132Z,16.35
2017-12-05T17:19:38.013Z,15.23
2017-12-05T17:22:07.474Z,15.68
2017-12-05T17:24:36.322Z,16.48
2017-12-05T17:27:05.169Z,15.65
2017-12-05T17:29:34.045Z,14.98
2017-12-05T17:32:02.912Z,15.25
2017-12-05T17:34:31.764Z,14.75
2017-12-05T17:37:01.395Z,15.85
2017-12-05T17:39:30.250Z,19.60
2017-12-05T17:41:59.114Z,19.55
2017-12-05T17:44:27.974Z,19.77
2017-12-05T17:46:56.980Z,24.37
2017-12-05T17:49:26.964Z,17.80
2017-12-05T17:51:56.008Z,19.85
2017-12-05T17:54:24.849Z,19.00
2017-12-05T17:56:54.479Z,17.20
2017-12-05T17:59:23.330Z,20.65
2017-12-05T18:01:52.189Z,19.00
2017-12-05T18:04:20.425Z,15.40
2017-12-05T18:06:49.417Z,18.00
2017-12-05T18:09:18.145Z,18.62
2017-12-05T18:11:46.699Z,19.70
2017-12-05T18:14:14.932Z,16.92
2017-12-05T18:16:43.722Z,17.67
2017-12-05T18:19:11.957Z,16.02
2017-12-05T18:21:40.566Z,19.30
2017-12-05T18:24:09.496Z,15.45
2017-12-05T18:26:38.329Z,16.50
2017-12-05T18:29:06.545Z,16.02
2017-12-05T18:31:34.778Z,14.07
2017-12-05T18:34:03.026Z,20.30
2017-12-05T18:36:31.256Z,17.00
2017-12-05T18:38:59.837Z,18.15
2017-12-05T18:41:28.070Z,15.50
2017-12-05T18:43:56.955Z,23.42
2017-12-05T18:46:25.462Z,17.00
2017-12-05T18:48:53.966Z,17.30
2017-12-05T18:51:22.197Z,13.85
2017-12-05T18:53:50.789Z,17.42
2017-12-05T18:56:24.238Z,14.70
2017-12-05T18:58:53.641Z,13.30
2017-12-05T19:01:22.571Z,15.63
2017-12-05T19:04:05.087Z,16.50
2017-12-05T19:06:33.333Z,17.35
2017-12-05T19:09:05.905Z,14.23
2017-12-05T19:15:45.692Z,17.08
2017-12-05T19:18:13.941Z,18.48
2017-12-05T19:20:43.097Z,20.05
2017-12-05T19:23:11.328Z,15.50
2017-12-05T19:25:39.955Z,15.05
2017-12-05T19:28:08.529Z,15.40
2017-12-05T19:30:37.841Z,16.25
2017-12-05T19:33:06.068Z,15.23
2017-12-05T19:35:47.234Z,17.77
2017-12-05T19:40:56.033Z,16.27
2017-12-05T19:43:29.863Z,18.65
2017-12-05T19:45:58.119Z,18.05
2017-12-05T19:48:26.805Z,18.17
2017-12-05T19:50:57.906Z,19.10
2017-12-05T19:53:26.429Z,20.75
2017-12-05T19:55:56.097Z,18.73
2017-12-05T19:58:36.035Z,17.37
2017-12-05T20:01:04.311Z,18.20
2017-12-05T20:03:32.737Z,17.80
2017-12-05T20:06:01.597Z,19.60
2017-12-05T20:08:30.653Z,16.80
2017-12-05T20:10:59.724Z,21.27
2017-12-05T20:13:28.727Z,21.80
2017-12-05T20:15:57.730Z,20.10
2017-12-05T20:18:25.809Z,16.50
2017-12-05T20:20:54.362Z,20.33
2017-12-05T20:23:22.592Z,19.92
2017-12-05T20:25:50.857Z,18.17
2017-12-05T20:28:19.454Z,20.05
2017-12-05T20:30:47.712Z,20.05
2017-12-05T20:33:15.958Z,21.98
2017-12-05T20:35:44.951Z,18.87
2017-12-05T20:38:14.261Z,21.77
2017-12-05T20:40:43.293Z,23.30
2017-12-05T20:43:11.898Z,17.67
2017-12-05T20:45:40.145Z,19.50
2017-12-05T20:48:08.993Z,18.15
2017-12-05T20:50:37.838Z,18.02
2017-12-05T20:53:06.681Z,31.58
2017-12-05T20:55:36.316Z,18.17
2017-12-05T20:58:05.153Z,20.73
2017-12-05T21:00:33.991Z,18.00
2017-12-05T21:03:02.589Z,18.50
2017-12-05T21:05:31.502Z,17.87
2017-12-05T21:08:00.352Z,19.17
2017-12-05T21:10:29.256Z,17.87
2017-12-05T21:12:58.095Z,18.58
2017-12-05T21:15:26.930Z,22.27
2017-12-05T21:17:55.773Z,19.40
2017-12-05T21:20:24.636Z,18.33
2017-12-05T21:22:53.469Z,22.17
2017-12-05T21:25:22.342Z,20.15
2017-12-05T21:27:51.197Z,18.05
2017-12-05T21:30:20.137Z,20.60
2017-12-05T21:32:48.986Z,18.55
2017-12-05T21:35:17.825Z,20.95
2017-12-05T21:37:46.410Z,20.02
2017-12-05T21:40:15.276Z,18.65
2017-12-05T21:42:44.190Z,17.70
2017-12-05T21:45:13.051Z,19.60
2017-12-05T21:47:42.751Z,23.10
2017-12-05T21:50:11.589Z,18.25
2017-12-05T21:52:40.440Z,22.25
2017-12-05T21:55:09.302Z,18.92
2017-12-05T21:57:38.181Z,21.27
2017-12-05T22:00:07.029Z,19.42
2017-12-05T22:02:35.870Z,19.85
2017-12-05T22:05:05.482Z,22.17
2017-12-05T22:07:34.339Z,17.37
2017-12-05T22:10:03.973Z,18.95
2017-12-05T22:12:33.593Z,17.30
2017-12-05T22:15:02.480Z,19.67
2017-12-05T22:17:31.320Z,16.02
2017-12-05T22:20:00.001Z,17.52
2017-12-05T22:22:28.848Z,18.67
2017-12-05T22:24:57.693Z,17.52
2017-12-05T22:27:26.529Z,17.50
2017-12-05T22:29:55.403Z,17.90
2017-12-05T22:32:25.140Z,22.00
2017-12-05T22:34:54.014Z,15.75
2017-12-05T22:37:23.743Z,24.63
2017-12-05T22:39:52.602Z,20.33
2017-12-05T22:42:22.225Z,17.02
2017-12-05T22:44:51.872Z,15.52
2017-12-05T22:47:20.704Z,17.60
2017-12-05T22:49:50.578Z,17.70
2017-12-05T22:52:19.437Z,15.82
2017-12-05T22:54:48.281Z,16.55
2017-12-05T22:57:17.179Z,19.40
2017-12-05T22:59:46.037Z,23.83
2017-12-05T23:02:14.574Z,18.92
2017-12-05T23:04:44.215Z,19.60
2017-12-05T23:07:13.053Z,18.08
2017-12-05T23:09:42.714Z,20.33
2017-12-05T23:12:11.558Z,18.73
2017-12-05T23:14:40.413Z,18.30
2017-12-05T23:17:10.030Z,18.02
2017-12-05T23:19:39.346Z,17.75
2017-12-05T23:22:08.863Z,18.30
2017-12-05T23:24:37.711Z,18.23
2017-12-05T23:27:06.549Z,20.52
2017-12-05T23:29:35.437Z,16.98
2017-12-05T23:32:04.437Z,17.00
2017-12-05T23:34:33.283Z,16.90
2017-12-05T23:37:02.169Z,17.08
2017-12-05T23:39:31.008Z,15.55
2017-12-05T23:41:59.853Z,14.63
2017-12-05T23:44:29.617Z,16.42
2017-12-05T23:46:58.470Z,19.00
2017-12-05T23:49:27.318Z,14.05
2017-12-05T23:51:56.169Z,17.25
2017-12-05T23:54:25.066Z,15.75
2017-12-05T23:56:53.903Z,17.08
2017-12-05T23:59:22.765Z,16.80
